sensor_id;sensor_type;location;lat;lon;timestamp;pressure;altitude;pressure_sealevel;temperature;humidity
12799;BME280;19250;42.646;26.980;2022-11-18T00:01:07;97974.84;;;11.87;100.00
12799;BME280;19250;42.646;26.980;2022-11-18T00:03:35;97979.75;;;11.83;100.00
12799;BME280;19250;42.646;26.980;2022-11-18T00:06:03;97987.69;;;11.98;100.00
12799;BME280;19250;42.646;26.980;2022-11-18T00:08:30;97991.19;;;11.77;100.00
12799;BME280;19250;42.646;26.980;2022-11-18T00:11:04;97993.28;;;12.03;100.00
12799;BME280;19250;42.646;26.980;2022-11-18T00:13:31;97989.19;;;11.79;100.00
12799;BME280;19250;42.646;26.980;2022-11-18T00:16:16;97988.81;;;10.52;100.00
12799;BME280;19250;42.646;26.980;2022-11-18T00:18:43;97968.22;;;10.90;100.00
12799;BME280;19250;42.646;26.980;2022-11-18T00:21:11;97983.78;;;11.22;100.00
12799;BME280;19250;42.646;26.980;2022-11-18T00:23:39;97978.44;;;10.86;100.00
12799;BME280;19250;42.646;26.980;2022-11-18T00:26:09;97979.03;;;11.18;100.00
12799;BME280;19250;42.646;26.980;2022-11-18T00:28:37;97977.69;;;11.43;100.00
12799;BME280;19250;42.646;26.980;2022-11-18T00:31:06;97983.38;;;11.19;100.00
12799;BME280;19250;42.646;26.980;2022-11-18T00:33:34;97979.53;;;11.42;100.00
12799;BME280;19250;42.646;26.980;2022-11-18T00:36:03;97984.56;;;11.52;100.00
12799;BME280;19250;42.646;26.980;2022-11-18T00:38:31;97956.44;;;11.35;100.00
12799;BME280;19250;42.646;26.980;2022-11-18T00:40:59;97984.56;;;11.52;100.00
12799;BME280;19250;42.646;26.980;2022-11-18T00:43:28;97965.97;;;11.65;100.00
12799;BME280;19250;42.646;26.980;2022-11-18T00:45:55;97981.44;;;11.48;100.00
12799;BME280;19250;42.646;26.980;2022-11-18T00:48:22;97988.16;;;11.09;100.00
12799;BME280;19250;42.646;26.980;2022-11-18T00:50:50;97994.06;;;10.89;100.00
12799;BME280;19250;42.646;26.980;2022-11-18T00:53:19;97998.63;;;11.25;100.00
12799;BME280;19250;42.646;26.980;2022-11-18T00:55:47;98002.22;;;11.53;100.00
12799;BME280;19250;42.646;26.980;2022-11-18T00:58:14;97988.00;;;11.67;100.00
12799;BME280;19250;42.646;26.980;2022-11-18T01:00:44;97988.19;;;11.30;100.00
12799;BME280;19250;42.646;26.980;2022-11-18T01:03:13;97991.09;;;11.50;100.00
12799;BME280;19250;42.646;26.980;2022-11-18T01:05:41;97974.09;;;11.00;100.00
12799;BME280;19250;42.646;26.980;2022-11-18T01:08:09;97970.78;;;11.13;100.00
12799;BME280;19250;42.646;26.980;2022-11-18T01:10:38;97980.44;;;11.35;100.00
12799;BME280;19250;42.646;26.980;2022-11-18T01:13:06;97983.41;;;11.61;100.00
12799;BME280;19250;42.646;26.980;2022-11-18T01:15:48;97980.63;;;11.69;100.00
12799;BME280;19250;42.646;26.980;2022-11-18T01:18:17;97988.91;;;11.03;100.00
12799;BME280;19250;42.646;26.980;2022-11-18T01:20:45;97975.44;;;11.11;100.00
12799;BME280;19250;42.646;26.980;2022-11-18T01:23:14;97976.84;;;11.42;100.00
12799;BME280;19250;42.646;26.980;2022-11-18T01:25:43;97940.31;;;11.22;100.00
12799;BME280;19250;42.646;26.980;2022-11-18T01:28:11;97987.78;;;11.69;100.00
12799;BME280;19250;42.646;26.980;2022-11-18T01:30:39;97989.00;;;11.45;100.00
12799;BME280;19250;42.646;26.980;2022-11-18T01:33:08;97991.09;;;11.14;100.00
12799;BME280;19250;42.646;26.980;2022-11-18T01:35:36;97931.91;;;10.74;100.00
12799;BME280;19250;42.646;26.980;2022-11-18T01:38:05;97978.03;;;11.19;100.00
12799;BME280;19250;42.646;26.980;2022-11-18T01:40:33;97976.44;;;11.24;100.00
12799;BME280;19250;42.646;26.980;2022-11-18T01:43:01;97979.28;;;11.23;100.00
12799;BME280;19250;42.646;26.980;2022-11-18T01:45:31;97978.72;;;10.77;100.00
12799;BME280;19250;42.646;26.980;2022-11-18T01:48:05;97983.31;;;10.68;100.00
12799;BME280;19250;42.646;26.980;2022-11-18T01:50:40;97977.22;;;11.04;100.00
12799;BME280;19250;42.646;26.980;2022-11-18T01:53:12;97987.97;;;11.46;100.00
12799;BME280;19250;42.646;26.980;2022-11-18T01:55:42;97988.31;;;11.58;100.00
12799;BME280;19250;42.646;26.980;2022-11-18T01:58:17;97984.50;;;11.10;100.00
12799;BME280;19250;42.646;26.980;2022-11-18T02:00:48;97983.13;;;10.99;100.00
12799;BME280;19250;42.646;26.980;2022-11-18T02:03:16;97988.69;;;11.19;100.00
12799;BME280;19250;42.646;26.980;2022-11-18T02:05:47;97986.88;;;11.05;100.00
12799;BME280;19250;42.646;26.980;2022-11-18T02:08:16;97976.00;;;9.81;100.00
12799;BME280;19250;42.646;26.980;2022-11-18T02:10:44;97961.31;;;10.22;100.00
12799;BME280;19250;42.646;26.980;2022-11-18T02:13:12;97973.84;;;10.51;100.00
12799;BME280;19250;42.646;26.980;2022-11-18T02:15:47;97976.94;;;10.99;100.00
12799;BME280;19250;42.646;26.980;2022-11-18T02:18:27;97900.28;;;10.13;100.00
12799;BME280;19250;42.646;26.980;2022-11-18T02:21:09;97968.69;;;10.64;100.00
12799;BME280;19250;42.646;26.980;2022-11-18T02:24:17;97960.94;;;10.99;100.00
12799;BME280;19250;42.646;26.980;2022-11-18T02:27:16;97968.63;;;11.23;100.00
12799;BME280;19250;42.646;26.980;2022-11-18T02:29:53;97976.00;;;11.21;100.00
12799;BME280;19250;42.646;26.980;2022-11-18T02:32:25;97968.91;;;11.13;100.00
12799;BME280;19250;42.646;26.980;2022-11-18T02:35:01;97980.44;;;10.99;100.00
12799;BME280;19250;42.646;26.980;2022-11-18T02:37:33;97983.63;;;11.24;100.00
12799;BME280;19250;42.646;26.980;2022-11-18T02:40:06;97991.78;;;11.22;100.00
12799;BME280;19250;42.646;26.980;2022-11-18T02:42:35;97986.59;;;11.00;100.00
12799;BME280;19250;42.646;26.980;2022-11-18T02:45:08;97981.81;;;11.10;100.00
12799;BME280;19250;42.646;26.980;2022-11-18T02:47:37;97988.88;;;11.17;100.00
12799;BME280;19250;42.646;26.980;2022-11-18T02:50:09;97989.72;;;11.18;100.00
12799;BME280;19250;42.646;26.980;2022-11-18T02:52:38;97949.69;;;10.82;100.00
12799;BME280;19250;42.646;26.980;2022-11-18T02:55:08;97978.56;;;11.14;100.00
12799;BME280;19250;42.646;26.980;2022-11-18T02:57:39;97997.28;;;11.35;100.00
12799;BME280;19250;42.646;26.980;2022-11-18T03:00:10;98015.06;;;11.28;100.00
12799;BME280;19250;42.646;26.980;2022-11-18T03:02:41;98000.50;;;11.10;100.00
12799;BME280;19250;42.646;26.980;2022-11-18T03:05:14;98009.91;;;10.91;100.00
12799;BME280;19250;42.646;26.980;2022-11-18T03:07:46;98003.16;;;10.80;100.00
12799;BME280;19250;42.646;26.980;2022-11-18T03:10:15;98012.47;;;10.84;100.00
12799;BME280;19250;42.646;26.980;2022-11-18T03:12:45;98013.19;;;10.93;100.00
12799;BME280;19250;42.646;26.980;2022-11-18T03:15:21;98013.28;;;11.00;100.00
12799;BME280;19250;42.646;26.980;2022-11-18T03:17:55;98006.13;;;10.85;100.00
12799;BME280;19250;42.646;26.980;2022-11-18T03:20:26;98004.00;;;10.96;100.00
12799;BME280;19250;42.646;26.980;2022-11-18T03:22:59;97958.94;;;10.71;100.00
12799;BME280;19250;42.646;26.980;2022-11-18T03:25:35;97997.84;;;10.66;100.00
12799;BME280;19250;42.646;26.980;2022-11-18T03:28:10;98003.88;;;10.30;100.00
12799;BME280;19250;42.646;26.980;2022-11-18T03:30:46;98004.50;;;10.18;100.00
12799;BME280;19250;42.646;26.980;2022-11-18T03:33:20;98009.66;;;9.97;100.00
12799;BME280;19250;42.646;26.980;2022-11-18T03:35:50;98007.59;;;9.84;100.00
12799;BME280;19250;42.646;26.980;2022-11-18T03:38:23;98005.28;;;8.97;100.00
12799;BME280;19250;42.646;26.980;2022-11-18T03:40:55;97997.63;;;8.55;100.00
12799;BME280;19250;42.646;26.980;2022-11-18T03:43:27;98001.44;;;9.30;100.00
12799;BME280;19250;42.646;26.980;2022-11-18T03:46:01;98001.16;;;9.25;100.00
12799;BME280;19250;42.646;26.980;2022-11-18T03:48:35;97993.31;;;9.54;100.00
12799;BME280;19250;42.646;26.980;2022-11-18T03:51:06;97989.31;;;9.58;100.00
12799;BME280;19250;42.646;26.980;2022-11-18T03:53:36;97994.69;;;9.73;100.00
12799;BME280;19250;42.646;26.980;2022-11-18T03:56:08;97995.25;;;10.06;100.00
12799;BME280;19250;42.646;26.980;2022-11-18T03:58:40;98002.22;;;10.07;100.00
12799;BME280;19250;42.646;26.980;2022-11-18T04:01:15;98006.81;;;10.35;100.00
12799;BME280;19250;42.646;26.980;2022-11-18T04:03:44;98010.63;;;10.18;100.00
12799;BME280;19250;42.646;26.980;2022-11-18T04:06:17;98010.97;;;10.38;100.00
12799;BME280;19250;42.646;26.980;2022-11-18T04:08:51;98014.56;;;10.45;100.00
12799;BME280;19250;42.646;26.980;2022-11-18T04:11:24;97999.41;;;10.46;100.00
12799;BME280;19250;42.646;26.980;2022-11-18T04:14:11;98009.28;;;10.37;100.00
12799;BME280;19250;42.646;26.980;2022-11-18T04:16:42;98014.31;;;10.17;100.00
12799;BME280;19250;42.646;26.980;2022-11-18T04:19:10;97974.69;;;10.00;100.00
12799;BME280;19250;42.646;26.980;2022-11-18T04:21:37;98012.13;;;10.21;100.00
12799;BME280;19250;42.646;26.980;2022-11-18T04:24:05;98008.88;;;10.48;100.00
12799;BME280;19250;42.646;26.980;2022-11-18T04:26:32;98019.34;;;10.64;100.00
12799;BME280;19250;42.646;26.980;2022-11-18T04:28:59;98015.47;;;10.37;100.00
12799;BME280;19250;42.646;26.980;2022-11-18T04:31:27;98007.78;;;10.57;100.00
12799;BME280;19250;42.646;26.980;2022-11-18T04:33:55;98012.41;;;10.26;100.00
12799;BME280;19250;42.646;26.980;2022-11-18T04:36:23;98007.34;;;10.16;100.00
12799;BME280;19250;42.646;26.980;2022-11-18T04:38:50;98005.41;;;10.25;100.00
12799;BME280;19250;42.646;26.980;2022-11-18T04:41:17;98011.97;;;10.37;100.00
12799;BME280;19250;42.646;26.980;2022-11-18T04:43:44;98008.91;;;10.25;100.00
12799;BME280;19250;42.646;26.980;2022-11-18T04:46:12;98010.50;;;10.34;100.00
12799;BME280;19250;42.646;26.980;2022-11-18T04:52:02;98009.06;;;10.76;100.00
12799;BME280;19250;42.646;26.980;2022-11-18T04:57:51;98008.50;;;10.80;100.00
12799;BME280;19250;42.646;26.980;2022-11-18T05:00:19;98010.91;;;10.61;100.00
12799;BME280;19250;42.646;26.980;2022-11-18T05:02:47;98015.59;;;10.21;100.00
12799;BME280;19250;42.646;26.980;2022-11-18T05:05:15;98013.25;;;10.41;100.00
12799;BME280;19250;42.646;26.980;2022-11-18T05:07:43;98009.78;;;10.55;100.00
12799;BME280;19250;42.646;26.980;2022-11-18T05:10:11;98008.78;;;10.56;100.00
12799;BME280;19250;42.646;26.980;2022-11-18T05:12:38;98021.25;;;10.41;100.00
12799;BME280;19250;42.646;26.980;2022-11-18T05:15:14;98022.84;;;9.45;100.00
12799;BME280;19250;42.646;26.980;2022-11-18T05:17:41;98028.38;;;8.96;100.00
12799;BME280;19250;42.646;26.980;2022-11-18T05:20:09;98020.19;;;8.67;100.00
12799;BME280;19250;42.646;26.980;2022-11-18T05:22:36;98027.81;;;9.48;100.00
12799;BME280;19250;42.646;26.980;2022-11-18T05:25:06;98031.09;;;9.72;100.00
12799;BME280;19250;42.646;26.980;2022-11-18T05:27:34;98028.38;;;10.03;100.00
12799;BME280;19250;42.646;26.980;2022-11-18T05:30:01;98034.03;;;9.85;100.00
12799;BME280;19250;42.646;26.980;2022-11-18T05:32:28;98031.72;;;10.05;100.00
12799;BME280;19250;42.646;26.980;2022-11-18T05:34:56;98035.75;;;10.24;100.00
12799;BME280;19250;42.646;26.980;2022-11-18T05:37:23;98030.00;;;10.64;100.00
12799;BME280;19250;42.646;26.980;2022-11-18T05:39:50;98006.94;;;10.86;100.00
12799;BME280;19250;42.646;26.980;2022-11-18T05:42:19;98026.44;;;10.72;100.00
12799;BME280;19250;42.646;26.980;2022-11-18T05:45:04;98023.84;;;10.49;100.00
12799;BME280;19250;42.646;26.980;2022-11-18T05:47:31;98013.84;;;10.51;100.00
12799;BME280;19250;42.646;26.980;2022-11-18T05:50:19;98022.09;;;10.56;100.00
12799;BME280;19250;42.646;26.980;2022-11-18T05:52:46;98025.69;;;11.22;100.00
12799;BME280;19250;42.646;26.980;2022-11-18T05:55:14;98023.84;;;11.58;100.00
12799;BME280;19250;42.646;26.980;2022-11-18T05:57:44;98028.81;;;11.11;100.00
12799;BME280;19250;42.646;26.980;2022-11-18T06:00:13;98030.66;;;11.61;100.00
12799;BME280;19250;42.646;26.980;2022-11-18T06:02:41;98029.06;;;11.66;100.00
12799;BME280;19250;42.646;26.980;2022-11-18T06:05:10;98037.19;;;11.94;100.00
12799;BME280;19250;42.646;26.980;2022-11-18T06:07:40;98034.50;;;11.94;100.00
12799;BME280;19250;42.646;26.980;2022-11-18T06:10:09;98030.81;;;12.16;100.00
12799;BME280;19250;42.646;26.980;2022-11-18T06:12:39;98032.69;;;11.59;100.00
12799;BME280;19250;42.646;26.980;2022-11-18T06:15:13;98018.72;;;11.99;100.00
12799;BME280;19250;42.646;26.980;2022-11-18T06:17:46;98029.09;;;12.09;100.00
12799;BME280;19250;42.646;26.980;2022-11-18T06:20:17;98026.78;;;12.27;100.00
12799;BME280;19250;42.646;26.980;2022-11-18T06:22:44;98032.19;;;12.61;100.00
12799;BME280;19250;42.646;26.980;2022-11-18T06:25:13;98046.63;;;12.67;100.00
12799;BME280;19250;42.646;26.980;2022-11-18T06:27:41;98051.97;;;12.67;100.00
12799;BME280;19250;42.646;26.980;2022-11-18T06:30:11;98057.41;;;12.24;100.00
12799;BME280;19250;42.646;26.980;2022-11-18T06:32:39;98052.44;;;12.00;100.00
12799;BME280;19250;42.646;26.980;2022-11-18T06:35:07;98037.09;;;11.16;100.00
12799;BME280;19250;42.646;26.980;2022-11-18T06:37:34;98041.84;;;11.35;100.00
12799;BME280;19250;42.646;26.980;2022-11-18T06:40:02;98045.50;;;11.48;100.00
12799;BME280;19250;42.646;26.980;2022-11-18T06:42:29;98046.19;;;11.93;100.00
12799;BME280;19250;42.646;26.980;2022-11-18T06:45:15;98047.47;;;11.97;100.00
12799;BME280;19250;42.646;26.980;2022-11-18T06:47:43;97998.13;;;11.00;100.00
12799;BME280;19250;42.646;26.980;2022-11-18T06:50:09;98044.50;;;11.85;100.00
12799;BME280;19250;42.646;26.980;2022-11-18T06:52:37;98052.50;;;12.07;100.00
12799;BME280;19250;42.646;26.980;2022-11-18T06:55:04;98045.16;;;12.36;100.00
12799;BME280;19250;42.646;26.980;2022-11-18T06:57:33;98054.69;;;12.45;100.00
12799;BME280;19250;42.646;26.980;2022-11-18T07:00:00;98043.25;;;12.30;100.00
12799;BME280;19250;42.646;26.980;2022-11-18T07:02:28;98048.22;;;12.33;100.00
12799;BME280;19250;42.646;26.980;2022-11-18T07:04:56;98034.28;;;12.38;100.00
12799;BME280;19250;42.646;26.980;2022-11-18T07:07:23;98041.38;;;12.52;100.00
12799;BME280;19250;42.646;26.980;2022-11-18T07:09:50;98039.88;;;12.71;100.00
12799;BME280;19250;42.646;26.980;2022-11-18T07:12:17;98040.38;;;12.87;100.00
12799;BME280;19250;42.646;26.980;2022-11-18T07:14:45;98035.97;;;12.73;100.00
12799;BME280;19250;42.646;26.980;2022-11-18T07:17:12;98038.91;;;13.13;100.00
12799;BME280;19250;42.646;26.980;2022-11-18T07:19:41;98040.75;;;12.84;100.00
12799;BME280;19250;42.646;26.980;2022-11-18T07:22:08;98038.66;;;13.07;100.00
12799;BME280;19250;42.646;26.980;2022-11-18T07:24:36;98046.75;;;13.14;100.00
12799;BME280;19250;42.646;26.980;2022-11-18T07:27:03;98039.97;;;12.84;100.00
12799;BME280;19250;42.646;26.980;2022-11-18T07:29:31;98039.00;;;12.98;100.00
12799;BME280;19250;42.646;26.980;2022-11-18T07:31:58;98043.44;;;13.12;100.00
12799;BME280;19250;42.646;26.980;2022-11-18T07:34:25;98044.94;;;12.87;100.00
12799;BME280;19250;42.646;26.980;2022-11-18T07:36:54;98044.25;;;13.53;100.00
12799;BME280;19250;42.646;26.980;2022-11-18T07:39:21;98043.63;;;13.58;100.00
12799;BME280;19250;42.646;26.980;2022-11-18T07:41:48;98039.88;;;13.46;100.00
12799;BME280;19250;42.646;26.980;2022-11-18T07:44:16;98042.25;;;13.88;100.00
12799;BME280;19250;42.646;26.980;2022-11-18T07:46:43;98039.69;;;14.41;100.00
12799;BME280;19250;42.646;26.980;2022-11-18T07:49:10;98036.13;;;14.86;100.00
12799;BME280;19250;42.646;26.980;2022-11-18T07:51:39;98038.81;;;14.93;100.00
12799;BME280;19250;42.646;26.980;2022-11-18T07:54:09;98034.91;;;14.89;100.00
12799;BME280;19250;42.646;26.980;2022-11-18T07:56:37;98036.91;;;15.13;100.00
12799;BME280;19250;42.646;26.980;2022-11-18T07:59:04;97999.53;;;14.98;100.00
12799;BME280;19250;42.646;26.980;2022-11-18T08:01:32;98026.22;;;15.57;100.00
12799;BME280;19250;42.646;26.980;2022-11-18T08:04:04;98017.84;;;15.78;100.00
12799;BME280;19250;42.646;26.980;2022-11-18T08:06:32;98022.97;;;15.87;100.00
12799;BME280;19250;42.646;26.980;2022-11-18T08:09:00;98018.22;;;15.82;100.00
12799;BME280;19250;42.646;26.980;2022-11-18T08:11:29;98018.50;;;16.05;100.00
12799;BME280;19250;42.646;26.980;2022-11-18T08:13:56;97996.16;;;15.73;100.00
12799;BME280;19250;42.646;26.980;2022-11-18T08:16:24;98004.91;;;15.62;100.00
12799;BME280;19250;42.646;26.980;2022-11-18T08:18:52;98003.31;;;16.42;100.00
12799;BME280;19250;42.646;26.980;2022-11-18T08:21:21;98012.13;;;17.17;100.00
12799;BME280;19250;42.646;26.980;2022-11-18T08:23:49;98002.09;;;17.24;100.00
12799;BME280;19250;42.646;26.980;2022-11-18T08:26:17;98008.41;;;17.18;100.00
12799;BME280;19250;42.646;26.980;2022-11-18T08:28:46;98007.94;;;17.21;100.00
12799;BME280;19250;42.646;26.980;2022-11-18T08:31:16;97994.59;;;17.26;100.00
12799;BME280;19250;42.646;26.980;2022-11-18T08:33:44;98013.97;;;17.53;100.00
12799;BME280;19250;42.646;26.980;2022-11-18T08:36:14;98019.88;;;18.21;100.00
12799;BME280;19250;42.646;26.980;2022-11-18T08:38:42;98028.19;;;18.49;100.00
12799;BME280;19250;42.646;26.980;2022-11-18T08:41:10;98038.47;;;17.99;100.00
12799;BME280;19250;42.646;26.980;2022-11-18T08:43:38;98028.59;;;18.34;100.00
12799;BME280;19250;42.646;26.980;2022-11-18T08:46:07;98036.81;;;18.28;100.00
12799;BME280;19250;42.646;26.980;2022-11-18T08:48:34;98035.72;;;18.29;100.00
12799;BME280;19250;42.646;26.980;2022-11-18T08:51:01;98038.03;;;18.14;100.00
12799;BME280;19250;42.646;26.980;2022-11-18T08:53:29;98044.72;;;18.11;100.00
12799;BME280;19250;42.646;26.980;2022-11-18T08:55:58;98045.97;;;17.97;100.00
12799;BME280;19250;42.646;26.980;2022-11-18T08:58:25;98044.03;;;18.16;100.00
12799;BME280;19250;42.646;26.980;2022-11-18T09:00:53;98042.53;;;17.90;100.00
12799;BME280;19250;42.646;26.980;2022-11-18T09:03:22;98038.38;;;18.06;100.00
12799;BME280;19250;42.646;26.980;2022-11-18T09:05:49;98043.66;;;18.01;100.00
12799;BME280;19250;42.646;26.980;2022-11-18T09:08:17;98042.03;;;17.81;100.00
12799;BME280;19250;42.646;26.980;2022-11-18T09:10:44;98030.97;;;17.71;100.00
12799;BME280;19250;42.646;26.980;2022-11-18T09:13:11;98031.75;;;17.90;100.00
12799;BME280;19250;42.646;26.980;2022-11-18T09:15:39;98019.38;;;17.34;100.00
12799;BME280;19250;42.646;26.980;2022-11-18T09:18:07;98015.88;;;16.73;100.00
12799;BME280;19250;42.646;26.980;2022-11-18T09:20:36;98009.38;;;16.06;100.00
12799;BME280;19250;42.646;26.980;2022-11-18T09:23:03;98004.59;;;15.84;100.00
12799;BME280;19250;42.646;26.980;2022-11-18T09:25:31;97996.50;;;16.15;100.00
12799;BME280;19250;42.646;26.980;2022-11-18T09:27:58;97995.63;;;16.46;100.00
12799;BME280;19250;42.646;26.980;2022-11-18T09:30:25;97995.50;;;16.83;100.00
12799;BME280;19250;42.646;26.980;2022-11-18T09:32:52;97995.94;;;16.62;100.00
12799;BME280;19250;42.646;26.980;2022-11-18T09:35:20;97994.53;;;17.14;100.00
12799;BME280;19250;42.646;26.980;2022-11-18T09:37:48;97993.28;;;16.56;100.00
12799;BME280;19250;42.646;26.980;2022-11-18T09:40:16;97993.06;;;16.32;100.00
12799;BME280;19250;42.646;26.980;2022-11-18T09:42:54;97991.00;;;16.03;100.00
12799;BME280;19250;42.646;26.980;2022-11-18T09:45:26;97989.84;;;16.67;100.00
12799;BME280;19250;42.646;26.980;2022-11-18T09:47:57;98000.53;;;17.82;100.00
12799;BME280;19250;42.646;26.980;2022-11-18T09:50:25;97953.38;;;17.73;100.00
12799;BME280;19250;42.646;26.980;2022-11-18T09:53:03;97985.41;;;19.16;100.00
12799;BME280;19250;42.646;26.980;2022-11-18T09:55:36;97991.31;;;21.09;100.00
12799;BME280;19250;42.646;26.980;2022-11-18T09:58:06;97983.50;;;22.31;100.00
12799;BME280;19250;42.646;26.980;2022-11-18T10:00:33;97958.97;;;22.95;100.00
12799;BME280;19250;42.646;26.980;2022-11-18T10:03:02;97985.25;;;23.98;99.16
12799;BME280;19250;42.646;26.980;2022-11-18T10:05:35;97997.59;;;24.21;94.73
12799;BME280;19250;42.646;26.980;2022-11-18T10:08:20;97985.06;;;24.85;89.57
12799;BME280;19250;42.646;26.980;2022-11-18T10:10:55;97986.19;;;26.13;76.91
12799;BME280;19250;42.646;26.980;2022-11-18T10:13:34;97970.03;;;26.55;75.63
12799;BME280;19250;42.646;26.980;2022-11-18T10:16:11;97974.06;;;27.49;66.76
12799;BME280;19250;42.646;26.980;2022-11-18T10:18:45;97966.59;;;28.16;62.51
12799;BME280;19250;42.646;26.980;2022-11-18T10:21:18;97947.06;;;27.80;62.71
12799;BME280;19250;42.646;26.980;2022-11-18T10:23:53;97956.34;;;28.72;57.24
12799;BME280;19250;42.646;26.980;2022-11-18T10:26:36;97956.97;;;28.83;55.76
12799;BME280;19250;42.646;26.980;2022-11-18T10:29:04;97955.06;;;28.97;54.61
12799;BME280;19250;42.646;26.980;2022-11-18T10:31:36;97948.88;;;28.08;58.42
12799;BME280;19250;42.646;26.980;2022-11-18T10:34:04;97952.44;;;28.41;57.58
12799;BME280;19250;42.646;26.980;2022-11-18T10:36:32;97951.94;;;29.58;49.82
12799;BME280;19250;42.646;26.980;2022-11-18T10:39:08;97944.56;;;29.94;48.14
12799;BME280;19250;42.646;26.980;2022-11-18T10:41:42;97937.31;;;29.49;48.71
12799;BME280;19250;42.646;26.980;2022-11-18T10:44:34;97944.56;;;29.94;48.03
12799;BME280;19250;42.646;26.980;2022-11-18T10:47:24;97945.59;;;29.98;48.39
12799;BME280;19250;42.646;26.980;2022-11-18T10:49:53;97938.06;;;29.77;47.66
12799;BME280;19250;42.646;26.980;2022-11-18T10:52:20;97937.19;;;26.60;59.87
12799;BME280;19250;42.646;26.980;2022-11-18T10:55:08;97930.50;;;24.90;73.70
12799;BME280;19250;42.646;26.980;2022-11-18T10:57:39;97918.13;;;22.85;94.08
12799;BME280;19250;42.646;26.980;2022-11-18T11:00:32;97917.13;;;23.06;92.32
12799;BME280;19250;42.646;26.980;2022-11-18T11:03:00;97877.59;;;21.46;100.00
12799;BME280;19250;42.646;26.980;2022-11-18T11:05:27;97905.25;;;21.43;100.00
12799;BME280;19250;42.646;26.980;2022-11-18T11:08:01;97908.69;;;20.95;100.00
12799;BME280;19250;42.646;26.980;2022-11-18T11:10:30;97876.16;;;20.51;100.00
12799;BME280;19250;42.646;26.980;2022-11-18T11:13:00;97868.06;;;20.73;100.00
12799;BME280;19250;42.646;26.980;2022-11-18T11:15:34;97896.66;;;22.41;100.00
12799;BME280;19250;42.646;26.980;2022-11-18T11:18:05;97897.94;;;21.70;100.00
12799;BME280;19250;42.646;26.980;2022-11-18T11:20:50;97896.44;;;21.09;100.00
12799;BME280;19250;42.646;26.980;2022-11-18T11:23:18;97884.69;;;21.03;100.00
12799;BME280;19250;42.646;26.980;2022-11-18T11:25:53;97885.06;;;20.69;100.00
12799;BME280;19250;42.646;26.980;2022-11-18T11:28:28;97892.13;;;20.70;100.00
12799;BME280;19250;42.646;26.980;2022-11-18T11:31:09;97843.53;;;19.75;100.00
12799;BME280;19250;42.646;26.980;2022-11-18T11:33:44;97874.97;;;20.86;100.00
12799;BME280;19250;42.646;26.980;2022-11-18T11:36:41;97865.75;;;22.15;100.00
12799;BME280;19250;42.646;26.980;2022-11-18T11:39:46;97866.94;;;21.93;100.00
12799;BME280;19250;42.646;26.980;2022-11-18T11:42:30;97856.06;;;22.24;100.00
12799;BME280;19250;42.646;26.980;2022-11-18T11:45:08;97850.75;;;21.76;100.00
12799;BME280;19250;42.646;26.980;2022-11-18T11:47:50;97848.56;;;22.05;100.00
12799;BME280;19250;42.646;26.980;2022-11-18T11:50:26;97841.56;;;23.13;95.06
12799;BME280;19250;42.646;26.980;2022-11-18T11:53:07;97842.41;;;22.56;98.71
12799;BME280;19250;42.646;26.980;2022-11-18T11:55:53;97838.59;;;23.19;93.24
12799;BME280;19250;42.646;26.980;2022-11-18T11:58:34;97805.22;;;24.10;85.16
12799;BME280;19250;42.646;26.980;2022-11-18T12:01:16;97826.13;;;23.28;89.63
12799;BME280;19250;42.646;26.980;2022-11-18T12:03:46;97820.97;;;23.37;93.14
12799;BME280;19250;42.646;26.980;2022-11-18T12:06:14;97818.72;;;24.85;80.03
12799;BME280;19250;42.646;26.980;2022-11-18T12:08:49;97811.66;;;23.08;90.33
12799;BME280;19250;42.646;26.980;2022-11-18T12:11:28;97799.88;;;22.82;94.06
12799;BME280;19250;42.646;26.980;2022-11-18T12:14:02;97800.44;;;22.32;98.16
12799;BME280;19250;42.646;26.980;2022-11-18T12:16:37;97794.34;;;22.15;100.00
12799;BME280;19250;42.646;26.980;2022-11-18T12:19:10;97792.97;;;22.12;100.00
12799;BME280;19250;42.646;26.980;2022-11-18T12:21:57;97793.38;;;22.31;100.00
12799;BME280;19250;42.646;26.980;2022-11-18T12:24:38;97796.38;;;22.97;93.41
12799;BME280;19250;42.646;26.980;2022-11-18T12:27:12;97783.28;;;22.78;98.86
12799;BME280;19250;42.646;26.980;2022-11-18T12:29:51;97788.66;;;23.66;89.13
12799;BME280;19250;42.646;26.980;2022-11-18T12:32:31;97793.00;;;23.72;92.34
12799;BME280;19250;42.646;26.980;2022-11-18T12:35:04;97787.13;;;24.59;83.71
12799;BME280;19250;42.646;26.980;2022-11-18T12:37:58;97788.88;;;24.30;83.78
12799;BME280;19250;42.646;26.980;2022-11-18T12:40:38;97777.59;;;26.51;68.90
12799;BME280;19250;42.646;26.980;2022-11-18T12:46:47;97776.47;;;25.27;72.80
12799;BME280;19250;42.646;26.980;2022-11-18T12:52:50;97779.06;;;24.34;83.40
12799;BME280;19250;42.646;26.980;2022-11-18T12:55:23;97778.16;;;25.90;73.10
12799;BME280;19250;42.646;26.980;2022-11-18T12:57:51;97777.97;;;25.04;75.14
12799;BME280;19250;42.646;26.980;2022-11-18T13:00:28;97775.03;;;23.81;84.99
12799;BME280;19250;42.646;26.980;2022-11-18T13:02:59;97767.69;;;25.30;74.27
12799;BME280;19250;42.646;26.980;2022-11-18T13:05:28;97763.44;;;27.29;63.14
12799;BME280;19250;42.646;26.980;2022-11-18T13:07:57;97765.78;;;24.92;74.53
12799;BME280;19250;42.646;26.980;2022-11-18T13:10:47;97767.06;;;24.35;81.65
12799;BME280;19250;42.646;26.980;2022-11-18T13:13:24;97752.63;;;22.31;97.26
12799;BME280;19250;42.646;26.980;2022-11-18T13:15:53;97752.00;;;22.76;94.58
12799;BME280;19250;42.646;26.980;2022-11-18T13:18:50;97745.66;;;21.98;100.00